createdAt,value
2023-02-06T00:02:38.874Z,7.10
2023-02-06T00:07:46.251Z,7.40
2023-02-06T00:12:53.769Z,6.50
2023-02-06T00:18:01.319Z,7.20
2023-02-06T00:23:09.045Z,6.70
2023-02-06T00:28:16.806Z,7.20
2023-02-06T00:33:24.686Z,6.50
2023-02-06T00:38:32.665Z,7.00
2023-02-06T00:43:39.971Z,7.10
2023-02-06T00:48:47.248Z,7.80
2023-02-06T00:53:54.661Z,7.50
2023-02-06T00:59:02.063Z,8.90
2023-02-06T01:04:09.769Z,9.30
2023-02-06T01:09:18.730Z,8.00
2023-02-06T01:14:26.124Z,8.50
2023-02-06T01:19:33.527Z,8.30
2023-02-06T01:24:41.570Z,9.30
2023-02-06T01:29:51.081Z,8.80
2023-02-06T01:34:58.650Z,9.30
2023-02-06T01:40:06.695Z,8.80
2023-02-06T01:45:39.970Z,9.00
2023-02-06T01:50:52.156Z,10.00
2023-02-06T01:56:01.350Z,7.80
2023-02-06T02:01:10.604Z,9.40
2023-02-06T02:06:24.381Z,11.70
2023-02-06T02:11:35.863Z,9.30
2023-02-06T02:16:51.087Z,9.80
2023-02-06T02:22:24.323Z,9.60
2023-02-06T02:27:50.568Z,8.30
2023-02-06T02:33:29.517Z,9.50
2023-02-06T02:38:45.809Z,8.60
2023-02-06T02:43:58.894Z,7.80
2023-02-06T02:49:11.239Z,9.40
2023-02-06T02:54:19.320Z,7.60
2023-02-06T02:59:36.362Z,8.10
2023-02-06T03:04:53.038Z,8.70
2023-02-06T03:10:10.714Z,6.90
2023-02-06T03:15:28.010Z,7.80
2023-02-06T03:20:38.840Z,6.20
2023-02-06T03:25:49.610Z,6.80
2023-02-06T03:31:01.318Z,6.20
2023-02-06T03:36:11.538Z,7.10
2023-02-06T03:41:22.046Z,6.60
2023-02-06T03:46:30.732Z,6.90
2023-02-06T03:51:42.736Z,6.50
2023-02-06T03:56:54.623Z,7.50
2023-02-06T04:02:04.589Z,7.40
2023-02-06T04:07:17.875Z,7.70
2023-02-06T04:12:26.394Z,7.80
2023-02-06T04:17:49.658Z,6.30
2023-02-06T04:22:57.490Z,7.30
2023-02-06T04:28:05.388Z,7.70
2023-02-06T04:33:12.733Z,7.50
2023-02-06T04:38:20.003Z,7.30
2023-02-06T04:43:27.544Z,8.30
2023-02-06T04:48:35.010Z,6.70
2023-02-06T04:53:42.336Z,8.40
2023-02-06T04:58:49.678Z,7.00
2023-02-06T05:03:57.052Z,6.80
2023-02-06T05:09:04.963Z,7.60
2023-02-06T05:14:12.443Z,7.30
2023-02-06T05:19:20.287Z,8.20
2023-02-06T05:24:27.889Z,7.70
2023-02-06T05:29:35.279Z,7.60
2023-02-06T05:34:42.770Z,8.20
2023-02-06T05:39:50.239Z,8.70
2023-02-06T05:44:58.016Z,8.40
2023-02-06T05:50:05.439Z,6.60
2023-02-06T05:55:14.740Z,8.00
2023-02-06T06:00:23.088Z,8.90
2023-02-06T06:05:30.562Z,9.00
2023-02-06T06:10:37.973Z,8.70
2023-02-06T06:15:46.268Z,10.50
2023-02-06T06:20:53.824Z,10.10
2023-02-06T06:26:01.213Z,9.90
2023-02-06T06:31:12.270Z,9.70
2023-02-06T06:36:19.806Z,9.90
2023-02-06T06:41:27.405Z,9.20
2023-02-06T06:46:35.044Z,9.70
2023-02-06T06:51:42.528Z,9.90
2023-02-06T06:56:50.068Z,10.30
2023-02-06T07:01:57.402Z,10.20
2023-02-06T07:07:04.831Z,10.50
2023-02-06T07:12:12.712Z,9.40
2023-02-06T07:17:20.304Z,11.70
2023-02-06T07:22:28.094Z,10.40
2023-02-06T07:27:36.007Z,12.30
2023-02-06T07:32:43.667Z,12.30
2023-02-06T07:37:51.205Z,10.50
2023-02-06T07:42:58.686Z,13.00
2023-02-06T07:48:09.925Z,11.30
2023-02-06T07:53:17.287Z,12.70
2023-02-06T07:58:24.816Z,14.10
2023-02-06T08:03:32.524Z,13.40
2023-02-06T08:08:39.700Z,13.00
2023-02-06T08:13:47.861Z,13.50
2023-02-06T08:18:55.403Z,13.50
2023-02-06T08:24:04.093Z,12.80
2023-02-06T08:29:12.378Z,13.00
2023-02-06T08:34:19.974Z,14.50
2023-02-06T08:39:27.605Z,15.90
2023-02-06T08:44:35.050Z,16.10
2023-02-06T08:49:43.201Z,15.20
2023-02-06T08:54:51.440Z,14.50
2023-02-06T08:59:59.334Z,13.90
2023-02-06T09:05:07.138Z,13.90
2023-02-06T09:10:26.813Z,13.60
2023-02-06T09:15:35.876Z,13.60
2023-02-06T09:20:43.573Z,13.30
2023-02-06T09:25:51.247Z,13.90
2023-02-06T09:30:58.745Z,15.30
2023-02-06T09:36:11.533Z,14.70
2023-02-06T09:41:31.473Z,12.80
2023-02-06T09:46:46.886Z,12.80
2023-02-06T09:52:24.303Z,13.40
2023-02-06T09:57:43.302Z,11.90
2023-02-06T10:03:06.526Z,12.00
2023-02-06T10:08:24.412Z,11.90
2023-02-06T10:13:35.547Z,11.20
2023-02-06T10:18:47.493Z,11.00
2023-02-06T10:24:00.726Z,11.10
2023-02-06T10:29:16.567Z,10.30
2023-02-06T10:34:43.930Z,10.80
2023-02-06T10:40:15.142Z,8.10
2023-02-06T10:45:34.930Z,6.80
2023-02-06T10:50:49.709Z,7.10
2023-02-06T10:56:01.378Z,7.10
2023-02-06T11:01:24.984Z,7.80
2023-02-06T11:06:34.552Z,7.50
2023-02-06T11:11:43.784Z,7.90
2023-02-06T11:16:51.340Z,6.90
2023-02-06T11:22:10.874Z,6.80
2023-02-06T11:27:21.734Z,5.70
2023-02-06T11:32:38.617Z,5.60
2023-02-06T11:37:46.141Z,4.10
2023-02-06T11:42:55.543Z,4.40
2023-02-06T11:48:03.488Z,4.50
2023-02-06T11:53:18.518Z,4.60
2023-02-06T11:58:27.590Z,3.90
2023-02-06T12:03:38.684Z,3.80
2023-02-06T12:08:52.507Z,3.60
2023-02-06T12:14:05.527Z,3.20
2023-02-06T12:19:19.184Z,4.80
2023-02-06T12:24:31.547Z,3.50
2023-02-06T12:29:43.861Z,4.20
2023-02-06T12:34:57.795Z,3.90
2023-02-06T12:40:05.890Z,3.40
2023-02-06T12:45:24.915Z,2.50
2023-02-06T12:50:35.413Z,2.50
2023-02-06T12:55:49.845Z,2.30
2023-02-06T13:01:31.653Z,2.40
2023-02-06T13:06:50.160Z,1.90
2023-02-06T13:12:08.536Z,2.20
2023-02-06T13:17:21.596Z,1.80
2023-02-06T13:22:50.707Z,2.20
2023-02-06T13:27:59.921Z,1.20
2023-02-06T13:33:17.098Z,2.40
2023-02-06T13:38:38.608Z,2.20
2023-02-06T13:43:49.981Z,2.40
2023-02-06T13:49:26.229Z,2.70
2023-02-06T13:54:57.591Z,2.20
2023-02-06T14:00:12.273Z,3.50
2023-02-06T14:05:25.317Z,3.60
2023-02-06T14:11:29.857Z,3.70
2023-02-06T14:16:50.624Z,3.40
2023-02-06T14:22:06.843Z,4.20
2023-02-06T14:27:30.793Z,3.80
2023-02-06T14:32:48.442Z,4.40
2023-02-06T14:38:22.358Z,4.50
2023-02-06T14:43:34.534Z,5.70
2023-02-06T14:48:50.240Z,4.80
2023-02-06T14:54:00.760Z,3.90
2023-02-06T14:59:21.571Z,4.00
2023-02-06T15:04:32.330Z,3.10
2023-02-06T15:09:44.538Z,5.10
2023-02-06T15:14:57.845Z,4.10
2023-02-06T15:20:25.370Z,5.50
2023-02-06T15:25:42.404Z,6.00
2023-02-06T15:30:55.034Z,5.30
2023-02-06T15:36:04.953Z,5.80
2023-02-06T15:41:14.899Z,4.70
2023-02-06T15:46:22.619Z,5.20
2023-02-06T15:51:32.142Z,5.00
2023-02-06T15:56:42.995Z,6.20
2023-02-06T16:01:51.861Z,5.90
2023-02-06T16:07:12.996Z,6.40
2023-02-06T16:12:21.957Z,7.80
2023-02-06T16:17:36.233Z,6.60
2023-02-06T16:22:44.354Z,6.70
2023-02-06T16:27:53.400Z,6.00
2023-02-06T16:33:11.497Z,7.20
2023-02-06T16:38:19.298Z,6.00
2023-02-06T16:43:28.563Z,6.20
2023-02-06T16:48:36.049Z,6.60
2023-02-06T16:53:45.288Z,7.00
2023-02-06T16:58:53.332Z,6.80
2023-02-06T17:04:01.112Z,6.30
2023-02-06T17:09:11.494Z,8.20
2023-02-06T17:14:19.355Z,7.30
2023-02-06T17:19:27.581Z,6.40
2023-02-06T17:24:35.363Z,6.30
2023-02-06T17:29:43.646Z,9.00
2023-02-06T17:34:54.881Z,8.20
2023-02-06T17:40:02.660Z,7.80
2023-02-06T17:45:11.676Z,8.10
2023-02-06T17:50:20.216Z,7.80
2023-02-06T17:55:28.850Z,7.30
2023-02-06T18:00:36.770Z,6.90
2023-02-06T18:05:44.781Z,7.40
2023-02-06T18:10:52.829Z,8.00
2023-02-06T18:16:00.983Z,7.40
2023-02-06T18:21:08.879Z,7.80
2023-02-06T18:26:16.748Z,7.80
2023-02-06T18:31:30.070Z,8.20
2023-02-06T18:36:38.450Z,9.20
2023-02-06T18:42:04.272Z,8.60
2023-02-06T18:47:13.165Z,8.10
2023-02-06T18:52:20.570Z,8.10
2023-02-06T18:57:28.058Z,9.20
2023-02-06T19:02:36.180Z,8.70
2023-02-06T19:07:43.784Z,10.00
2023-02-06T19:12:51.401Z,9.20
2023-02-06T19:17:59.791Z,8.50
2023-02-06T19:23:07.218Z,9.30
2023-02-06T19:28:14.598Z,9.00
2023-02-06T19:33:22.116Z,9.30
2023-02-06T19:38:29.814Z,9.90
2023-02-06T19:43:37.668Z,9.50
2023-02-06T19:48:46.450Z,10.50
2023-02-06T19:53:55.536Z,9.80
2023-02-06T19:59:04.753Z,9.60
2023-02-06T20:04:14.130Z,10.50
2023-02-06T20:09:22.706Z,9.90
2023-02-06T20:14:35.634Z,9.30
2023-02-06T20:19:43.604Z,10.20
2023-02-06T20:24:51.595Z,9.00
2023-02-06T20:30:00.249Z,10.70
2023-02-06T20:35:08.543Z,11.20
2023-02-06T20:40:17.323Z,10.60
2023-02-06T20:45:25.326Z,9.90
2023-02-06T20:50:32.670Z,9.60
2023-02-06T20:55:44.633Z,10.10
2023-02-06T21:00:52.254Z,9.50
2023-02-06T21:06:03.096Z,10.80
2023-02-06T21:11:11.271Z,9.40
2023-02-06T21:16:18.797Z,9.40
2023-02-06T21:21:27.216Z,9.90
2023-02-06T21:26:34.943Z,9.80
2023-02-06T21:31:42.757Z,10.10
2023-02-06T21:36:50.454Z,10.10
2023-02-06T21:42:00.830Z,10.00
2023-02-06T21:47:10.260Z,10.20
2023-02-06T21:52:17.710Z,11.40
2023-02-06T21:57:25.308Z,10.10
2023-02-06T22:02:32.976Z,10.00
2023-02-06T22:07:41.035Z,11.10
2023-02-06T22:12:51.722Z,10.30
2023-02-06T22:17:59.576Z,10.50
2023-02-06T22:23:08.651Z,9.30
2023-02-06T22:28:16.284Z,8.50
2023-02-06T22:33:25.012Z,10.80
2023-02-06T22:38:32.974Z,11.30
2023-02-06T22:43:41.127Z,10.20
2023-02-06T22:48:49.126Z,10.70
2023-02-06T22:53:56.730Z,10.90
2023-02-06T22:59:06.222Z,10.10
2023-02-06T23:04:16.671Z,9.50
2023-02-06T23:09:27.150Z,9.50
2023-02-06T23:14:35.212Z,9.60
2023-02-06T23:19:42.957Z,9.60
2023-02-06T23:24:53.548Z,9.50
2023-02-06T23:30:01.792Z,9.40
2023-02-06T23:35:10.353Z,8.90
2023-02-06T23:40:17.416Z,8.10
2023-02-06T23:45:24.983Z,8.30
2023-02-06T23:50:32.671Z,8.50
2023-02-06T23:55:42.254Z,9.00
